sensor_id;sensor_type;location;lat;lon;timestamp;temperature;humidity
4727;DHT22;2377;51.734;8.950;2023-04-16T00:00:15;9.10;1.00
4727;DHT22;2377;51.734;8.950;2023-04-16T00:02:42;9.10;1.00
4727;DHT22;2377;51.734;8.950;2023-04-16T00:05:10;9.10;1.00
4727;DHT22;2377;51.734;8.950;2023-04-16T00:07:37;9.10;1.00
4727;DHT22;2377;51.734;8.950;2023-04-16T00:10:05;9.10;1.00
4727;DHT22;2377;51.734;8.950;2023-04-16T00:12:33;9.10;1.00
4727;DHT22;2377;51.734;8.950;2023-04-16T00:15:01;9.10;1.00
4727;DHT22;2377;51.734;8.950;2023-04-16T00:17:27;9.10;1.00
4727;DHT22;2377;51.734;8.950;2023-04-16T00:19:54;9.10;1.00
4727;DHT22;2377;51.734;8.950;2023-04-16T00:22:23;9.10;1.00
4727;DHT22;2377;51.734;8.950;2023-04-16T00:24:49;9.10;1.00
4727;DHT22;2377;51.734;8.950;2023-04-16T00:27:17;9.10;1.00
4727;DHT22;2377;51.734;8.950;2023-04-16T00:29:44;9.10;1.00
4727;DHT22;2377;51.734;8.950;2023-04-16T00:32:11;9.10;1.00
4727;DHT22;2377;51.734;8.950;2023-04-16T00:34:38;9.10;1.00
4727;DHT22;2377;51.734;8.950;2023-04-16T00:37:05;9.10;1.00
4727;DHT22;2377;51.734;8.950;2023-04-16T00:39:33;9.10;1.00
4727;DHT22;2377;51.734;8.950;2023-04-16T00:42:00;9.10;1.00
4727;DHT22;2377;51.734;8.950;2023-04-16T00:44:27;9.10;1.00
4727;DHT22;2377;51.734;8.950;2023-04-16T00:46:55;9.10;1.00
4727;DHT22;2377;51.734;8.950;2023-04-16T00:49:22;9.10;1.00
4727;DHT22;2377;51.734;8.950;2023-04-16T00:51:50;9.00;1.00
4727;DHT22;2377;51.734;8.950;2023-04-16T00:54:17;9.00;1.00
4727;DHT22;2377;51.734;8.950;2023-04-16T00:56:46;9.00;1.00
4727;DHT22;2377;51.734;8.950;2023-04-16T00:59:13;9.00;1.00
4727;DHT22;2377;51.734;8.950;2023-04-16T01:01:40;9.00;1.00
4727;DHT22;2377;51.734;8.950;2023-04-16T01:04:07;9.00;1.00
4727;DHT22;2377;51.734;8.950;2023-04-16T01:06:34;9.00;1.00
4727;DHT22;2377;51.734;8.950;2023-04-16T01:09:02;9.00;1.00
4727;DHT22;2377;51.734;8.950;2023-04-16T01:11:28;9.00;1.00
4727;DHT22;2377;51.734;8.950;2023-04-16T01:13:57;9.00;1.00
4727;DHT22;2377;51.734;8.950;2023-04-16T01:16:24;9.00;1.00
4727;DHT22;2377;51.734;8.950;2023-04-16T01:18:51;9.00;1.00
4727;DHT22;2377;51.734;8.950;2023-04-16T01:21:19;9.00;1.00
4727;DHT22;2377;51.734;8.950;2023-04-16T01:23:46;9.00;1.00
4727;DHT22;2377;51.734;8.950;2023-04-16T01:26:13;9.00;1.00
4727;DHT22;2377;51.734;8.950;2023-04-16T01:28:40;9.00;1.00
4727;DHT22;2377;51.734;8.950;2023-04-16T01:31:06;9.00;1.00
4727;DHT22;2377;51.734;8.950;2023-04-16T01:33:33;9.00;1.00
4727;DHT22;2377;51.734;8.950;2023-04-16T01:36:00;9.00;1.00
4727;DHT22;2377;51.734;8.950;2023-04-16T01:38:28;9.00;1.00
4727;DHT22;2377;51.734;8.950;2023-04-16T01:40:56;9.00;1.00
4727;DHT22;2377;51.734;8.950;2023-04-16T01:43:23;9.00;1.00
4727;DHT22;2377;51.734;8.950;2023-04-16T01:45:51;9.00;1.00
4727;DHT22;2377;51.734;8.950;2023-04-16T01:48:25;9.00;1.00
4727;DHT22;2377;51.734;8.950;2023-04-16T01:50:52;9.00;1.00
4727;DHT22;2377;51.734;8.950;2023-04-16T01:53:18;9.00;1.00
4727;DHT22;2377;51.734;8.950;2023-04-16T01:55:47;9.00;1.00
4727;DHT22;2377;51.734;8.950;2023-04-16T01:58:13;9.00;1.00
4727;DHT22;2377;51.734;8.950;2023-04-16T02:00:40;9.00;1.00
4727;DHT22;2377;51.734;8.950;2023-04-16T02:03:08;9.00;1.00
4727;DHT22;2377;51.734;8.950;2023-04-16T02:05:35;9.00;1.00
4727;DHT22;2377;51.734;8.950;2023-04-16T02:08:02;9.00;1.00
4727;DHT22;2377;51.734;8.950;2023-04-16T02:10:30;9.00;1.00
4727;DHT22;2377;51.734;8.950;2023-04-16T02:12:58;9.00;1.00
4727;DHT22;2377;51.734;8.950;2023-04-16T02:15:25;8.90;1.00
4727;DHT22;2377;51.734;8.950;2023-04-16T02:17:52;9.00;1.00
4727;DHT22;2377;51.734;8.950;2023-04-16T02:20:21;8.90;1.00
4727;DHT22;2377;51.734;8.950;2023-04-16T02:22:48;9.00;1.00
4727;DHT22;2377;51.734;8.950;2023-04-16T02:25:15;8.90;1.00
4727;DHT22;2377;51.734;8.950;2023-04-16T02:27:42;8.90;1.00
4727;DHT22;2377;51.734;8.950;2023-04-16T02:30:11;8.90;1.00
4727;DHT22;2377;51.734;8.950;2023-04-16T02:32:38;8.80;99.90
4727;DHT22;2377;51.734;8.950;2023-04-16T02:35:05;9.00;1.00
4727;DHT22;2377;51.734;8.950;2023-04-16T02:37:33;8.80;1.00
4727;DHT22;2377;51.734;8.950;2023-04-16T02:39:59;8.90;1.00
4727;DHT22;2377;51.734;8.950;2023-04-16T02:42:26;8.90;1.00
4727;DHT22;2377;51.734;8.950;2023-04-16T02:44:53;8.80;1.00
4727;DHT22;2377;51.734;8.950;2023-04-16T02:47:22;8.80;1.00
4727;DHT22;2377;51.734;8.950;2023-04-16T02:49:49;8.80;1.00
4727;DHT22;2377;51.734;8.950;2023-04-16T02:52:15;8.80;1.00
4727;DHT22;2377;51.734;8.950;2023-04-16T02:54:42;8.80;1.00
4727;DHT22;2377;51.734;8.950;2023-04-16T02:57:09;8.80;1.00
4727;DHT22;2377;51.734;8.950;2023-04-16T02:59:36;8.80;1.00
4727;DHT22;2377;51.734;8.950;2023-04-16T03:02:03;8.80;1.00
4727;DHT22;2377;51.734;8.950;2023-04-16T03:04:33;8.80;1.00
4727;DHT22;2377;51.734;8.950;2023-04-16T03:07:00;8.80;1.00
4727;DHT22;2377;51.734;8.950;2023-04-16T03:09:26;8.70;1.00
4727;DHT22;2377;51.734;8.950;2023-04-16T03:11:53;8.70;1.00
4727;DHT22;2377;51.734;8.950;2023-04-16T03:14:21;8.70;1.00
4727;DHT22;2377;51.734;8.950;2023-04-16T03:16:48;8.80;1.00
4727;DHT22;2377;51.734;8.950;2023-04-16T03:19:15;8.80;1.00
4727;DHT22;2377;51.734;8.950;2023-04-16T03:21:43;8.70;1.00
4727;DHT22;2377;51.734;8.950;2023-04-16T03:24:10;8.80;1.00
4727;DHT22;2377;51.734;8.950;2023-04-16T03:26:36;8.80;1.00
4727;DHT22;2377;51.734;8.950;2023-04-16T03:29:03;8.80;1.00
4727;DHT22;2377;51.734;8.950;2023-04-16T03:31:30;8.80;1.00
4727;DHT22;2377;51.734;8.950;2023-04-16T03:33:57;8.80;1.00
4727;DHT22;2377;51.734;8.950;2023-04-16T03:36:24;8.80;1.00
4727;DHT22;2377;51.734;8.950;2023-04-16T03:38:53;8.70;1.00
4727;DHT22;2377;51.734;8.950;2023-04-16T03:41:20;8.70;1.00
4727;DHT22;2377;51.734;8.950;2023-04-16T03:43:47;8.80;1.00
4727;DHT22;2377;51.734;8.950;2023-04-16T03:46:14;8.70;1.00
4727;DHT22;2377;51.734;8.950;2023-04-16T03:48:41;8.60;1.00
4727;DHT22;2377;51.734;8.950;2023-04-16T03:51:07;8.60;1.00
4727;DHT22;2377;51.734;8.950;2023-04-16T03:53:34;8.60;1.00
4727;DHT22;2377;51.734;8.950;2023-04-16T03:56:03;8.60;1.00
4727;DHT22;2377;51.734;8.950;2023-04-16T03:58:30;8.60;1.00
4727;DHT22;2377;51.734;8.950;2023-04-16T04:00:57;8.60;1.00
4727;DHT22;2377;51.734;8.950;2023-04-16T04:03:24;8.60;1.00
4727;DHT22;2377;51.734;8.950;2023-04-16T04:05:51;8.60;1.00
4727;DHT22;2377;51.734;8.950;2023-04-16T04:08:19;8.60;1.00
4727;DHT22;2377;51.734;8.950;2023-04-16T04:10:46;8.60;1.00
4727;DHT22;2377;51.734;8.950;2023-04-16T04:13:14;8.60;1.00
4727;DHT22;2377;51.734;8.950;2023-04-16T04:15:41;8.60;1.00
4727;DHT22;2377;51.734;8.950;2023-04-16T04:18:09;8.60;1.00
4727;DHT22;2377;51.734;8.950;2023-04-16T04:20:38;8.60;1.00
4727;DHT22;2377;51.734;8.950;2023-04-16T04:23:06;8.60;1.00
4727;DHT22;2377;51.734;8.950;2023-04-16T04:25:32;8.60;1.00
4727;DHT22;2377;51.734;8.950;2023-04-16T04:28:00;8.60;1.00
4727;DHT22;2377;51.734;8.950;2023-04-16T04:30:28;8.60;1.00
4727;DHT22;2377;51.734;8.950;2023-04-16T04:32:55;8.60;1.00
4727;DHT22;2377;51.734;8.950;2023-04-16T04:35:22;8.60;1.00
4727;DHT22;2377;51.734;8.950;2023-04-16T04:37:49;8.60;1.00
4727;DHT22;2377;51.734;8.950;2023-04-16T04:40:16;8.60;1.00
4727;DHT22;2377;51.734;8.950;2023-04-16T04:42:43;8.60;1.00
4727;DHT22;2377;51.734;8.950;2023-04-16T04:45:10;8.60;1.00
4727;DHT22;2377;51.734;8.950;2023-04-16T04:47:38;8.60;1.00
4727;DHT22;2377;51.734;8.950;2023-04-16T04:50:06;8.50;1.00
4727;DHT22;2377;51.734;8.950;2023-04-16T04:52:34;8.60;1.00
4727;DHT22;2377;51.734;8.950;2023-04-16T04:55:00;8.50;1.00
4727;DHT22;2377;51.734;8.950;2023-04-16T04:57:28;8.60;1.00
4727;DHT22;2377;51.734;8.950;2023-04-16T04:59:54;8.50;1.00
4727;DHT22;2377;51.734;8.950;2023-04-16T05:02:21;8.60;99.90
4727;DHT22;2377;51.734;8.950;2023-04-16T05:04:50;8.50;99.90
4727;DHT22;2377;51.734;8.950;2023-04-16T05:07:16;8.50;99.90
4727;DHT22;2377;51.734;8.950;2023-04-16T05:09:43;8.50;99.90
4727;DHT22;2377;51.734;8.950;2023-04-16T05:12:10;8.40;99.90
4727;DHT22;2377;51.734;8.950;2023-04-16T05:14:37;8.40;99.90
4727;DHT22;2377;51.734;8.950;2023-04-16T05:17:04;8.40;99.90
4727;DHT22;2377;51.734;8.950;2023-04-16T05:19:32;8.30;99.90
4727;DHT22;2377;51.734;8.950;2023-04-16T05:22:00;8.30;99.90
4727;DHT22;2377;51.734;8.950;2023-04-16T05:24:28;8.30;99.90
4727;DHT22;2377;51.734;8.950;2023-04-16T05:26:56;8.20;99.90
4727;DHT22;2377;51.734;8.950;2023-04-16T05:29:23;8.10;99.90
4727;DHT22;2377;51.734;8.950;2023-04-16T05:31:50;8.10;99.90
4727;DHT22;2377;51.734;8.950;2023-04-16T05:34:16;8.10;1.00
4727;DHT22;2377;51.734;8.950;2023-04-16T05:36:43;8.10;99.90
4727;DHT22;2377;51.734;8.950;2023-04-16T05:39:12;8.10;99.90
4727;DHT22;2377;51.734;8.950;2023-04-16T05:41:39;8.10;1.00
4727;DHT22;2377;51.734;8.950;2023-04-16T05:44:06;8.10;99.90
4727;DHT22;2377;51.734;8.950;2023-04-16T05:46:33;8.00;99.90
4727;DHT22;2377;51.734;8.950;2023-04-16T05:49:00;8.00;99.90
4727;DHT22;2377;51.734;8.950;2023-04-16T05:51:27;8.00;99.90
4727;DHT22;2377;51.734;8.950;2023-04-16T05:53:54;8.00;1.00
4727;DHT22;2377;51.734;8.950;2023-04-16T05:56:22;8.00;99.90
4727;DHT22;2377;51.734;8.950;2023-04-16T05:58:49;8.10;1.00
4727;DHT22;2377;51.734;8.950;2023-04-16T06:01:17;8.10;1.00
4727;DHT22;2377;51.734;8.950;2023-04-16T06:03:44;8.10;99.90
4727;DHT22;2377;51.734;8.950;2023-04-16T06:06:11;8.10;99.90
4727;DHT22;2377;51.734;8.950;2023-04-16T06:08:38;8.10;1.00
4727;DHT22;2377;51.734;8.950;2023-04-16T06:11:04;8.10;1.00
4727;DHT22;2377;51.734;8.950;2023-04-16T06:13:33;8.10;99.90
4727;DHT22;2377;51.734;8.950;2023-04-16T06:15:59;8.10;99.90
4727;DHT22;2377;51.734;8.950;2023-04-16T06:18:26;8.10;99.90
4727;DHT22;2377;51.734;8.950;2023-04-16T06:20:53;8.20;99.90
4727;DHT22;2377;51.734;8.950;2023-04-16T06:23:20;8.10;99.90
4727;DHT22;2377;51.734;8.950;2023-04-16T06:25:47;8.10;99.90
4727;DHT22;2377;51.734;8.950;2023-04-16T06:28:14;8.10;99.90
4727;DHT22;2377;51.734;8.950;2023-04-16T06:30:42;8.10;99.90
4727;DHT22;2377;51.734;8.950;2023-04-16T06:33:09;8.10;99.90
4727;DHT22;2377;51.734;8.950;2023-04-16T06:35:36;8.00;99.90
4727;DHT22;2377;51.734;8.950;2023-04-16T06:38:03;8.00;99.90
4727;DHT22;2377;51.734;8.950;2023-04-16T06:40:30;8.10;99.90
4727;DHT22;2377;51.734;8.950;2023-04-16T06:42:57;8.10;99.90
4727;DHT22;2377;51.734;8.950;2023-04-16T06:45:24;8.00;1.00
4727;DHT22;2377;51.734;8.950;2023-04-16T06:47:52;8.10;99.90
4727;DHT22;2377;51.734;8.950;2023-04-16T06:50:19;8.10;1.00
4727;DHT22;2377;51.734;8.950;2023-04-16T06:52:47;8.10;99.90
4727;DHT22;2377;51.734;8.950;2023-04-16T06:55:15;8.10;99.90
4727;DHT22;2377;51.734;8.950;2023-04-16T06:57:41;8.00;1.00
4727;DHT22;2377;51.734;8.950;2023-04-16T07:00:09;7.90;1.00
4727;DHT22;2377;51.734;8.950;2023-04-16T07:02:37;7.90;1.00
4727;DHT22;2377;51.734;8.950;2023-04-16T07:05:06;7.80;1.00
4727;DHT22;2377;51.734;8.950;2023-04-16T07:07:33;7.90;1.00
4727;DHT22;2377;51.734;8.950;2023-04-16T07:10:00;7.90;99.90
4727;DHT22;2377;51.734;8.950;2023-04-16T07:12:27;7.90;1.00
4727;DHT22;2377;51.734;8.950;2023-04-16T07:14:54;7.80;99.90
4727;DHT22;2377;51.734;8.950;2023-04-16T07:17:21;7.90;99.90
4727;DHT22;2377;51.734;8.950;2023-04-16T07:19:50;7.90;99.90
4727;DHT22;2377;51.734;8.950;2023-04-16T07:22:18;7.90;99.90
4727;DHT22;2377;51.734;8.950;2023-04-16T07:24:45;7.80;99.90
4727;DHT22;2377;51.734;8.950;2023-04-16T07:27:12;7.90;99.90
4727;DHT22;2377;51.734;8.950;2023-04-16T07:29:39;8.00;99.90
4727;DHT22;2377;51.734;8.950;2023-04-16T07:32:06;7.90;99.90
4727;DHT22;2377;51.734;8.950;2023-04-16T07:34:33;7.90;99.90
4727;DHT22;2377;51.734;8.950;2023-04-16T07:37:00;8.00;99.90
4727;DHT22;2377;51.734;8.950;2023-04-16T07:39:29;8.00;99.90
4727;DHT22;2377;51.734;8.950;2023-04-16T07:41:55;8.00;99.90
4727;DHT22;2377;51.734;8.950;2023-04-16T07:44:23;8.00;99.90
4727;DHT22;2377;51.734;8.950;2023-04-16T07:46:50;8.00;99.90
4727;DHT22;2377;51.734;8.950;2023-04-16T07:49:16;8.00;99.90
4727;DHT22;2377;51.734;8.950;2023-04-16T07:51:43;8.00;99.90
4727;DHT22;2377;51.734;8.950;2023-04-16T07:54:10;8.00;99.90
4727;DHT22;2377;51.734;8.950;2023-04-16T07:56:39;8.00;99.90
4727;DHT22;2377;51.734;8.950;2023-04-16T07:59:06;8.00;99.90
4727;DHT22;2377;51.734;8.950;2023-04-16T08:01:32;8.10;99.90
4727;DHT22;2377;51.734;8.950;2023-04-16T08:03:59;8.10;99.90
4727;DHT22;2377;51.734;8.950;2023-04-16T08:06:26;8.10;99.90
4727;DHT22;2377;51.734;8.950;2023-04-16T08:08:53;8.20;99.90
4727;DHT22;2377;51.734;8.950;2023-04-16T08:11:21;8.20;99.90
4727;DHT22;2377;51.734;8.950;2023-04-16T08:13:50;8.30;99.90
4727;DHT22;2377;51.734;8.950;2023-04-16T08:16:17;8.30;99.90
4727;DHT22;2377;51.734;8.950;2023-04-16T08:18:44;8.30;99.90
4727;DHT22;2377;51.734;8.950;2023-04-16T08:21:11;8.40;99.90
4727;DHT22;2377;51.734;8.950;2023-04-16T08:23:38;8.40;99.90
4727;DHT22;2377;51.734;8.950;2023-04-16T08:26:05;8.50;99.90
4727;DHT22;2377;51.734;8.950;2023-04-16T08:28:32;8.50;99.90
4727;DHT22;2377;51.734;8.950;2023-04-16T08:31:00;8.50;99.90
4727;DHT22;2377;51.734;8.950;2023-04-16T08:33:27;8.60;99.90
4727;DHT22;2377;51.734;8.950;2023-04-16T08:35:54;8.60;99.90
4727;DHT22;2377;51.734;8.950;2023-04-16T08:38:21;8.80;99.90
4727;DHT22;2377;51.734;8.950;2023-04-16T08:40:48;8.80;99.90
4727;DHT22;2377;51.734;8.950;2023-04-16T08:43:17;8.90;99.90
4727;DHT22;2377;51.734;8.950;2023-04-16T08:45:46;9.00;99.90
4727;DHT22;2377;51.734;8.950;2023-04-16T08:48:15;9.00;99.90
4727;DHT22;2377;51.734;8.950;2023-04-16T08:50:45;9.00;99.90
4727;DHT22;2377;51.734;8.950;2023-04-16T08:53:18;9.00;99.90
4727;DHT22;2377;51.734;8.950;2023-04-16T08:55:50;9.00;99.90
4727;DHT22;2377;51.734;8.950;2023-04-16T08:58:19;8.90;99.90
4727;DHT22;2377;51.734;8.950;2023-04-16T09:00:48;9.00;99.90
4727;DHT22;2377;51.734;8.950;2023-04-16T09:03:16;9.00;99.90
4727;DHT22;2377;51.734;8.950;2023-04-16T09:05:45;9.00;99.90
4727;DHT22;2377;51.734;8.950;2023-04-16T09:08:13;9.00;99.90
4727;DHT22;2377;51.734;8.950;2023-04-16T09:10:40;9.10;99.90
4727;DHT22;2377;51.734;8.950;2023-04-16T09:13:09;9.10;99.90
4727;DHT22;2377;51.734;8.950;2023-04-16T09:15:38;9.30;99.90
4727;DHT22;2377;51.734;8.950;2023-04-16T09:18:06;9.30;99.90
4727;DHT22;2377;51.734;8.950;2023-04-16T09:20:35;9.40;99.90
4727;DHT22;2377;51.734;8.950;2023-04-16T09:23:02;9.50;99.90
4727;DHT22;2377;51.734;8.950;2023-04-16T09:25:32;9.50;99.90
4727;DHT22;2377;51.734;8.950;2023-04-16T09:28:00;9.50;99.90
4727;DHT22;2377;51.734;8.950;2023-04-16T09:30:27;9.50;99.90
4727;DHT22;2377;51.734;8.950;2023-04-16T09:33:11;9.50;99.90
4727;DHT22;2377;51.734;8.950;2023-04-16T09:35:46;9.60;99.90
4727;DHT22;2377;51.734;8.950;2023-04-16T09:38:14;9.60;99.90
4727;DHT22;2377;51.734;8.950;2023-04-16T09:40:41;9.60;99.90
4727;DHT22;2377;51.734;8.950;2023-04-16T09:43:13;9.70;99.90
4727;DHT22;2377;51.734;8.950;2023-04-16T09:45:48;9.80;99.90
4727;DHT22;2377;51.734;8.950;2023-04-16T09:48:27;9.80;99.90
4727;DHT22;2377;51.734;8.950;2023-04-16T09:50:57;9.80;99.90
4727;DHT22;2377;51.734;8.950;2023-04-16T09:53:25;9.80;99.90
4727;DHT22;2377;51.734;8.950;2023-04-16T09:55:55;9.80;99.90
4727;DHT22;2377;51.734;8.950;2023-04-16T09:58:23;9.60;99.90
4727;DHT22;2377;51.734;8.950;2023-04-16T10:00:54;9.60;99.90
4727;DHT22;2377;51.734;8.950;2023-04-16T10:03:28;9.70;99.90
4727;DHT22;2377;51.734;8.950;2023-04-16T10:06:00;9.80;99.90
4727;DHT22;2377;51.734;8.950;2023-04-16T10:08:27;9.80;99.90
4727;DHT22;2377;51.734;8.950;2023-04-16T10:10:55;10.00;99.90
4727;DHT22;2377;51.734;8.950;2023-04-16T10:13:22;10.00;99.90
4727;DHT22;2377;51.734;8.950;2023-04-16T10:15:54;10.00;99.90
4727;DHT22;2377;51.734;8.950;2023-04-16T10:18:21;10.00;99.90
4727;DHT22;2377;51.734;8.950;2023-04-16T10:20:49;9.90;99.90
4727;DHT22;2377;51.734;8.950;2023-04-16T10:23:18;10.00;99.90
4727;DHT22;2377;51.734;8.950;2023-04-16T10:25:47;10.00;99.90
4727;DHT22;2377;51.734;8.950;2023-04-16T10:28:14;9.90;99.90
4727;DHT22;2377;51.734;8.950;2023-04-16T10:30:44;9.90;99.90
4727;DHT22;2377;51.734;8.950;2023-04-16T10:33:18;9.90;99.90
4727;DHT22;2377;51.734;8.950;2023-04-16T10:35:47;9.80;99.90
4727;DHT22;2377;51.734;8.950;2023-04-16T10:38:24;9.90;99.90
4727;DHT22;2377;51.734;8.950;2023-04-16T10:40:57;9.90;99.90
4727;DHT22;2377;51.734;8.950;2023-04-16T10:43:26;10.00;99.90
4727;DHT22;2377;51.734;8.950;2023-04-16T10:45:54;10.00;99.90
4727;DHT22;2377;51.734;8.950;2023-04-16T10:48:23;10.10;99.90
4727;DHT22;2377;51.734;8.950;2023-04-16T10:50:54;10.10;99.90
4727;DHT22;2377;51.734;8.950;2023-04-16T10:53:25;10.10;99.90
4727;DHT22;2377;51.734;8.950;2023-04-16T10:56:11;10.10;99.90
4727;DHT22;2377;51.734;8.950;2023-04-16T10:58:39;10.10;99.90
4727;DHT22;2377;51.734;8.950;2023-04-16T11:01:10;10.10;99.90
4727;DHT22;2377;51.734;8.950;2023-04-16T11:03:43;10.20;99.90
4727;DHT22;2377;51.734;8.950;2023-04-16T11:06:13;10.30;99.90
4727;DHT22;2377;51.734;8.950;2023-04-16T11:08:43;10.30;99.90
4727;DHT22;2377;51.734;8.950;2023-04-16T11:11:11;10.20;99.90
4727;DHT22;2377;51.734;8.950;2023-04-16T11:13:42;10.30;99.90
4727;DHT22;2377;51.734;8.950;2023-04-16T11:16:10;10.20;99.90
4727;DHT22;2377;51.734;8.950;2023-04-16T11:18:39;10.30;99.90
4727;DHT22;2377;51.734;8.950;2023-04-16T11:21:07;10.30;99.90
4727;DHT22;2377;51.734;8.950;2023-04-16T11:23:47;10.10;99.90
4727;DHT22;2377;51.734;8.950;2023-04-16T11:26:22;10.10;99.90
4727;DHT22;2377;51.734;8.950;2023-04-16T11:28:50;10.10;99.90
4727;DHT22;2377;51.734;8.950;2023-04-16T11:31:17;10.10;99.90
4727;DHT22;2377;51.734;8.950;2023-04-16T11:33:45;10.10;99.90
4727;DHT22;2377;51.734;8.950;2023-04-16T11:36:12;10.30;99.90
4727;DHT22;2377;51.734;8.950;2023-04-16T11:38:39;10.30;99.90
4727;DHT22;2377;51.734;8.950;2023-04-16T11:41:09;10.30;99.90
4727;DHT22;2377;51.734;8.950;2023-04-16T11:43:36;10.30;99.90
4727;DHT22;2377;51.734;8.950;2023-04-16T11:46:04;10.30;99.90
4727;DHT22;2377;51.734;8.950;2023-04-16T11:48:51;10.30;99.90
4727;DHT22;2377;51.734;8.950;2023-04-16T11:51:19;10.30;99.90
4727;DHT22;2377;51.734;8.950;2023-04-16T11:53:48;10.30;99.90
4727;DHT22;2377;51.734;8.950;2023-04-16T11:56:26;10.30;99.90
4727;DHT22;2377;51.734;8.950;2023-04-16T11:59:10;10.30;97.90
4727;DHT22;2377;51.734;8.950;2023-04-16T12:01:39;10.40;99.90
4727;DHT22;2377;51.734;8.950;2023-04-16T12:04:07;10.40;99.90
4727;DHT22;2377;51.734;8.950;2023-04-16T12:06:34;10.40;99.90
4727;DHT22;2377;51.734;8.950;2023-04-16T12:09:22;10.40;99.90
4727;DHT22;2377;51.734;8.950;2023-04-16T12:11:52;10.50;99.90
4727;DHT22;2377;51.734;8.950;2023-04-16T12:14:19;10.50;77.00
4727;DHT22;2377;51.734;8.950;2023-04-16T12:16:46;10.50;99.90
4727;DHT22;2377;51.734;8.950;2023-04-16T12:19:13;10.40;99.90
4727;DHT22;2377;51.734;8.950;2023-04-16T12:21:41;10.40;99.90
4727;DHT22;2377;51.734;8.950;2023-04-16T12:24:11;10.30;99.90
4727;DHT22;2377;51.734;8.950;2023-04-16T12:26:42;10.30;99.90
4727;DHT22;2377;51.734;8.950;2023-04-16T12:29:20;10.30;99.90
4727;DHT22;2377;51.734;8.950;2023-04-16T12:31:49;10.30;93.60
4727;DHT22;2377;51.734;8.950;2023-04-16T12:34:18;10.40;59.30
4727;DHT22;2377;51.734;8.950;2023-04-16T12:36:47;10.50;89.60
4727;DHT22;2377;51.734;8.950;2023-04-16T12:39:28;10.30;99.90
4727;DHT22;2377;51.734;8.950;2023-04-16T12:41:55;10.40;86.70
4727;DHT22;2377;51.734;8.950;2023-04-16T12:44:23;10.50;96.70
4727;DHT22;2377;51.734;8.950;2023-04-16T12:46:52;10.30;99.90
4727;DHT22;2377;51.734;8.950;2023-04-16T12:49:19;10.30;99.90
4727;DHT22;2377;51.734;8.950;2023-04-16T12:51:46;10.30;99.90
4727;DHT22;2377;51.734;8.950;2023-04-16T12:54:13;10.20;99.90
4727;DHT22;2377;51.734;8.950;2023-04-16T12:56:40;10.20;99.90
4727;DHT22;2377;51.734;8.950;2023-04-16T12:59:07;10.20;99.90
4727;DHT22;2377;51.734;8.950;2023-04-16T13:01:35;10.20;99.90
4727;DHT22;2377;51.734;8.950;2023-04-16T13:04:02;10.30;99.90
4727;DHT22;2377;51.734;8.950;2023-04-16T13:06:30;10.20;99.90
4727;DHT22;2377;51.734;8.950;2023-04-16T13:08:58;10.10;99.90
4727;DHT22;2377;51.734;8.950;2023-04-16T13:11:25;10.00;99.90
4727;DHT22;2377;51.734;8.950;2023-04-16T13:13:51;10.00;99.90
4727;DHT22;2377;51.734;8.950;2023-04-16T13:16:18;10.00;99.90
4727;DHT22;2377;51.734;8.950;2023-04-16T13:18:47;10.00;99.90
4727;DHT22;2377;51.734;8.950;2023-04-16T13:21:14;10.00;99.90
4727;DHT22;2377;51.734;8.950;2023-04-16T13:23:41;10.00;99.90
4727;DHT22;2377;51.734;8.950;2023-04-16T13:26:08;10.10;99.90
4727;DHT22;2377;51.734;8.950;2023-04-16T13:28:35;10.10;99.90
4727;DHT22;2377;51.734;8.950;2023-04-16T13:31:02;10.00;99.90
4727;DHT22;2377;51.734;8.950;2023-04-16T13:33:29;10.00;99.90
4727;DHT22;2377;51.734;8.950;2023-04-16T13:35:57;10.00;99.90
4727;DHT22;2377;51.734;8.950;2023-04-16T13:38:24;10.00;99.90
4727;DHT22;2377;51.734;8.950;2023-04-16T13:40:51;10.00;99.90
4727;DHT22;2377;51.734;8.950;2023-04-16T13:43:18;10.10;99.90
4727;DHT22;2377;51.734;8.950;2023-04-16T13:45:46;10.00;99.90
4727;DHT22;2377;51.734;8.950;2023-04-16T13:48:13;10.00;99.90
4727;DHT22;2377;51.734;8.950;2023-04-16T13:50:42;10.00;99.90
4727;DHT22;2377;51.734;8.950;2023-04-16T13:53:10;9.90;99.90
4727;DHT22;2377;51.734;8.950;2023-04-16T13:55:37;9.90;99.90
4727;DHT22;2377;51.734;8.950;2023-04-16T13:58:04;10.00;99.90
4727;DHT22;2377;51.734;8.950;2023-04-16T14:00:31;9.90;99.90
4727;DHT22;2377;51.734;8.950;2023-04-16T14:02:58;10.00;99.90
4727;DHT22;2377;51.734;8.950;2023-04-16T14:05:25;9.90;99.90
4727;DHT22;2377;51.734;8.950;2023-04-16T14:07:52;10.00;99.90
4727;DHT22;2377;51.734;8.950;2023-04-16T14:10:21;10.00;99.90
4727;DHT22;2377;51.734;8.950;2023-04-16T14:12:48;10.00;99.90
4727;DHT22;2377;51.734;8.950;2023-04-16T14:15:15;10.00;99.90
4727;DHT22;2377;51.734;8.950;2023-04-16T14:17:43;10.00;99.90
4727;DHT22;2377;51.734;8.950;2023-04-16T14:20:11;10.00;99.90
4727;DHT22;2377;51.734;8.950;2023-04-16T14:22:39;10.10;99.90
4727;DHT22;2377;51.734;8.950;2023-04-16T14:25:07;10.10;99.90
4727;DHT22;2377;51.734;8.950;2023-04-16T14:27:35;10.10;99.90
4727;DHT22;2377;51.734;8.950;2023-04-16T14:30:03;10.00;99.90
4727;DHT22;2377;51.734;8.950;2023-04-16T14:32:30;10.00;99.90
4727;DHT22;2377;51.734;8.950;2023-04-16T14:34:57;10.00;99.90
4727;DHT22;2377;51.734;8.950;2023-04-16T14:37:24;10.10;99.90
4727;DHT22;2377;51.734;8.950;2023-04-16T14:39:51;10.10;99.90
4727;DHT22;2377;51.734;8.950;2023-04-16T14:42:19;10.10;99.90
4727;DHT22;2377;51.734;8.950;2023-04-16T14:44:48;10.10;99.90
4727;DHT22;2377;51.734;8.950;2023-04-16T14:47:16;10.10;99.90
4727;DHT22;2377;51.734;8.950;2023-04-16T14:49:43;10.10;99.90
4727;DHT22;2377;51.734;8.950;2023-04-16T14:52:10;10.10;99.90
4727;DHT22;2377;51.734;8.950;2023-04-16T14:54:37;10.10;99.90
4727;DHT22;2377;51.734;8.950;2023-04-16T14:57:04;10.00;99.90
4727;DHT22;2377;51.734;8.950;2023-04-16T14:59:31;10.00;99.90
4727;DHT22;2377;51.734;8.950;2023-04-16T15:01:59;10.00;99.90
4727;DHT22;2377;51.734;8.950;2023-04-16T15:04:26;10.00;99.90
4727;DHT22;2377;51.734;8.950;2023-04-16T15:06:53;10.00;99.90
4727;DHT22;2377;51.734;8.950;2023-04-16T15:09:23;9.90;99.90
4727;DHT22;2377;51.734;8.950;2023-04-16T15:11:51;9.90;99.90
4727;DHT22;2377;51.734;8.950;2023-04-16T15:14:18;9.90;99.90
4727;DHT22;2377;51.734;8.950;2023-04-16T15:16:46;9.90;99.90
4727;DHT22;2377;51.734;8.950;2023-04-16T15:19:14;10.00;99.90
4727;DHT22;2377;51.734;8.950;2023-04-16T15:21:42;10.00;99.90
4727;DHT22;2377;51.734;8.950;2023-04-16T15:24:09;10.00;99.90
4727;DHT22;2377;51.734;8.950;2023-04-16T15:26:36;10.00;99.90
4727;DHT22;2377;51.734;8.950;2023-04-16T15:29:06;10.00;99.90
4727;DHT22;2377;51.734;8.950;2023-04-16T15:31:33;10.00;99.90
4727;DHT22;2377;51.734;8.950;2023-04-16T15:34:00;10.00;99.90
4727;DHT22;2377;51.734;8.950;2023-04-16T15:36:28;10.10;99.90
4727;DHT22;2377;51.734;8.950;2023-04-16T15:38:55;10.10;99.90
4727;DHT22;2377;51.734;8.950;2023-04-16T15:41:22;10.10;99.90
4727;DHT22;2377;51.734;8.950;2023-04-16T15:43:49;10.10;99.90
4727;DHT22;2377;51.734;8.950;2023-04-16T15:46:16;10.10;99.90
4727;DHT22;2377;51.734;8.950;2023-04-16T15:48:43;10.10;99.90
4727;DHT22;2377;51.734;8.950;2023-04-16T15:51:10;10.10;99.90
4727;DHT22;2377;51.734;8.950;2023-04-16T15:53:38;10.10;99.90
4727;DHT22;2377;51.734;8.950;2023-04-16T15:56:05;10.10;99.90
4727;DHT22;2377;51.734;8.950;2023-04-16T15:58:32;10.10;99.90
4727;DHT22;2377;51.734;8.950;2023-04-16T16:00:59;10.10;99.90
4727;DHT22;2377;51.734;8.950;2023-04-16T16:03:26;10.20;99.90
4727;DHT22;2377;51.734;8.950;2023-04-16T16:05:53;10.30;99.90
4727;DHT22;2377;51.734;8.950;2023-04-16T16:08:20;10.30;99.90
4727;DHT22;2377;51.734;8.950;2023-04-16T16:10:49;10.30;99.90
4727;DHT22;2377;51.734;8.950;2023-04-16T16:13:16;10.30;99.90
4727;DHT22;2377;51.734;8.950;2023-04-16T16:15:43;10.30;99.90
4727;DHT22;2377;51.734;8.950;2023-04-16T16:18:10;10.30;99.90
4727;DHT22;2377;51.734;8.950;2023-04-16T16:20:37;10.30;99.90